createdAt,value
2023-05-21T00:00:12.737Z,19.48
2023-05-21T00:01:34.697Z,19.92
2023-05-21T00:02:59.165Z,20.92
2023-05-21T00:04:21.376Z,19.38
2023-05-21T00:05:47.041Z,21.17
2023-05-21T00:07:10.263Z,21.38
2023-05-21T00:08:34.120Z,21.13
2023-05-21T00:09:56.916Z,20.35
2023-05-21T00:11:19.826Z,19.55
2023-05-21T00:12:42.029Z,20.25
2023-05-21T00:14:05.045Z,20.92
2023-05-21T00:15:27.900Z,19.63
2023-05-21T00:16:49.962Z,19.92
2023-05-21T00:18:12.923Z,20.45
2023-05-21T00:19:36.618Z,20.08
2023-05-21T00:20:59.900Z,19.42
2023-05-21T00:22:22.728Z,20.15
2023-05-21T00:23:45.464Z,20.48
2023-05-21T00:25:09.188Z,18.85
2023-05-21T00:26:32.069Z,19.98
2023-05-21T00:27:54.604Z,20.35
2023-05-21T00:29:17.424Z,19.33
2023-05-21T00:30:41.040Z,19.67
2023-05-21T00:32:04.245Z,19.90
2023-05-21T00:33:28.954Z,18.63
2023-05-21T00:34:50.858Z,19.52
2023-05-21T00:36:15.380Z,19.48
2023-05-21T00:37:38.416Z,19.92
2023-05-21T00:39:00.312Z,20.48
2023-05-21T00:40:23.650Z,18.85
2023-05-21T00:41:46.644Z,21.45
2023-05-21T00:43:10.135Z,19.60
2023-05-21T00:44:34.512Z,19.73
2023-05-21T00:45:59.179Z,19.05
2023-05-21T00:47:22.572Z,20.05
2023-05-21T00:48:45.966Z,20.23
2023-05-21T00:50:10.145Z,20.48
2023-05-21T00:51:34.321Z,20.15
2023-05-21T00:52:56.542Z,19.92
2023-05-21T00:54:19.724Z,20.85
2023-05-21T00:55:42.548Z,19.55
2023-05-21T00:57:05.780Z,19.58
2023-05-21T00:58:28.928Z,19.80
2023-05-21T00:59:53.326Z,20.45
2023-05-21T01:01:16.204Z,20.45
2023-05-21T01:02:39.578Z,19.67
2023-05-21T01:04:01.821Z,19.00
2023-05-21T01:05:24.884Z,19.95
2023-05-21T01:06:48.148Z,19.42
2023-05-21T01:08:10.985Z,19.70
2023-05-21T01:09:33.850Z,20.83
2023-05-21T01:10:56.828Z,20.48
2023-05-21T01:12:21.557Z,21.33
2023-05-21T01:13:45.629Z,19.70
2023-05-21T01:15:10.759Z,19.48
2023-05-21T01:16:32.737Z,20.65
2023-05-21T01:17:55.883Z,18.42
2023-05-21T01:19:20.160Z,20.85
2023-05-21T01:20:48.088Z,20.73
2023-05-21T01:22:14.735Z,19.85
2023-05-21T01:23:39.043Z,19.90
2023-05-21T01:25:02.781Z,20.85
2023-05-21T01:26:26.367Z,19.70
2023-05-21T01:27:49.283Z,20.27
2023-05-21T01:29:13.101Z,19.60
2023-05-21T01:30:37.181Z,20.98
2023-05-21T01:32:04.986Z,19.83
2023-05-21T01:33:34.718Z,20.40
2023-05-21T01:35:02.053Z,21.02
2023-05-21T01:36:31.119Z,19.48
2023-05-21T01:38:05.867Z,19.50
2023-05-21T01:39:35.277Z,20.33
2023-05-21T01:41:03.755Z,21.30
2023-05-21T01:42:27.818Z,20.50
2023-05-21T01:43:51.347Z,20.30
2023-05-21T01:45:16.649Z,19.90
2023-05-21T01:46:38.776Z,21.58
2023-05-21T01:48:01.943Z,20.85
2023-05-21T01:49:24.544Z,19.25
2023-05-21T01:50:48.560Z,19.60
2023-05-21T01:52:10.606Z,21.15
2023-05-21T01:53:33.445Z,21.80
2023-05-21T01:55:00.344Z,21.10
2023-05-21T01:56:25.954Z,19.48
2023-05-21T01:57:48.982Z,19.65
2023-05-21T01:59:11.521Z,19.85
2023-05-21T02:00:34.619Z,21.17
2023-05-21T02:01:57.580Z,19.88
2023-05-21T02:03:21.741Z,20.60
2023-05-21T02:04:44.246Z,20.67
2023-05-21T02:06:07.085Z,20.70
2023-05-21T02:07:29.035Z,20.88
2023-05-21T02:08:52.036Z,19.85
2023-05-21T02:10:16.214Z,21.02
2023-05-21T02:11:39.031Z,20.17
2023-05-21T02:13:02.084Z,20.48
2023-05-21T02:14:25.295Z,20.55
2023-05-21T02:15:48.225Z,21.02
2023-05-21T02:17:10.313Z,21.35
2023-05-21T02:18:34.183Z,21.13
2023-05-21T02:19:56.994Z,20.15
2023-05-21T02:21:20.616Z,20.00
2023-05-21T02:22:45.508Z,20.63
2023-05-21T02:24:08.328Z,20.00
2023-05-21T02:25:32.786Z,21.17
2023-05-21T02:26:55.720Z,19.20
2023-05-21T02:28:17.634Z,20.63
2023-05-21T02:29:40.482Z,20.10
2023-05-21T02:31:02.382Z,20.92
2023-05-21T02:32:25.587Z,21.38
2023-05-21T02:33:47.522Z,22.10
2023-05-21T02:35:12.309Z,20.90
2023-05-21T02:36:36.108Z,22.38
2023-05-21T02:37:59.566Z,21.88
2023-05-21T02:39:22.511Z,21.35
2023-05-21T02:40:45.739Z,21.77
2023-05-21T02:42:08.576Z,21.67
2023-05-21T02:43:30.519Z,21.23
2023-05-21T02:44:53.455Z,21.90
2023-05-21T02:46:16.395Z,21.95
2023-05-21T02:47:38.645Z,22.27
2023-05-21T02:49:01.540Z,21.17
2023-05-21T02:50:23.738Z,21.25
2023-05-21T02:51:46.569Z,21.15
2023-05-21T02:53:09.412Z,21.58
2023-05-21T02:54:32.226Z,21.73
2023-05-21T02:55:56.441Z,21.20
2023-05-21T02:57:18.395Z,21.00
2023-05-21T02:58:41.708Z,22.33
2023-05-21T03:00:05.907Z,21.17
2023-05-21T03:01:29.293Z,22.90
2023-05-21T03:02:51.300Z,22.75
2023-05-21T03:04:14.211Z,21.63
2023-05-21T03:05:36.348Z,22.38
2023-05-21T03:07:02.140Z,21.63
2023-05-21T03:08:25.307Z,21.67
2023-05-21T03:09:48.296Z,21.02
2023-05-21T03:11:12.468Z,22.40
2023-05-21T03:12:34.349Z,21.98
2023-05-21T03:13:57.154Z,21.10
2023-05-21T03:15:24.237Z,22.25
2023-05-21T03:16:47.233Z,22.55
2023-05-21T03:18:10.150Z,22.77
2023-05-21T03:19:34.499Z,22.55
2023-05-21T03:20:58.975Z,22.58
2023-05-21T03:22:21.587Z,21.60
2023-05-21T03:23:44.418Z,21.98
2023-05-21T03:25:06.962Z,23.10
2023-05-21T03:26:31.107Z,23.20
2023-05-21T03:27:53.885Z,22.35
2023-05-21T03:29:15.831Z,23.00
2023-05-21T03:30:39.178Z,21.88
2023-05-21T03:32:02.837Z,23.40
2023-05-21T03:33:25.944Z,21.70
2023-05-21T03:34:47.869Z,22.83
2023-05-21T03:36:10.828Z,21.52
2023-05-21T03:37:32.730Z,22.63
2023-05-21T03:38:55.557Z,22.45
2023-05-21T03:40:18.391Z,23.20
2023-05-21T03:41:42.641Z,21.70
2023-05-21T03:43:04.602Z,22.50
2023-05-21T03:44:27.940Z,22.38
2023-05-21T03:45:49.905Z,23.10
2023-05-21T03:47:12.720Z,21.83
2023-05-21T03:48:35.589Z,23.05
2023-05-21T03:49:57.488Z,23.30
2023-05-21T03:51:20.983Z,22.45
2023-05-21T03:52:42.837Z,23.08
2023-05-21T03:54:05.757Z,22.90
2023-05-21T03:55:29.408Z,22.60
2023-05-21T03:56:52.585Z,23.52
2023-05-21T03:58:15.546Z,22.35
2023-05-21T03:59:37.494Z,22.83
2023-05-21T04:01:01.810Z,24.60
2023-05-21T04:02:26.637Z,21.92
2023-05-21T04:03:48.866Z,22.45
2023-05-21T04:05:11.807Z,22.95
2023-05-21T04:06:34.726Z,22.52
2023-05-21T04:07:58.755Z,23.73
2023-05-21T04:09:21.144Z,23.40
2023-05-21T04:10:43.933Z,23.95
2023-05-21T04:12:07.954Z,23.13
2023-05-21T04:13:30.785Z,23.55
2023-05-21T04:14:53.635Z,23.42
2023-05-21T04:16:19.559Z,22.85
2023-05-21T04:17:42.518Z,24.60
2023-05-21T04:19:04.459Z,23.45
2023-05-21T04:20:27.291Z,23.45
2023-05-21T04:21:50.085Z,23.70
2023-05-21T04:23:12.958Z,23.98
2023-05-21T04:24:38.102Z,24.60
2023-05-21T04:26:00.043Z,23.35
2023-05-21T04:27:24.638Z,24.10
2023-05-21T04:28:46.541Z,23.38
2023-05-21T04:30:10.049Z,23.85
2023-05-21T04:31:32.276Z,24.50
2023-05-21T04:32:55.413Z,23.08
2023-05-21T04:34:17.875Z,23.23
2023-05-21T04:35:44.612Z,22.73
2023-05-21T04:37:07.819Z,24.33
2023-05-21T04:38:30.180Z,23.20
2023-05-21T04:39:53.527Z,23.55
2023-05-21T04:41:15.435Z,24.42
2023-05-21T04:42:41.209Z,22.90
2023-05-21T04:44:05.841Z,22.92
2023-05-21T04:45:29.415Z,22.00
2023-05-21T04:46:52.565Z,22.90
2023-05-21T04:48:15.800Z,23.00
2023-05-21T04:49:38.697Z,23.65
2023-05-21T04:51:00.578Z,23.02
2023-05-21T04:52:25.030Z,23.00
2023-05-21T04:53:48.061Z,24.02
2023-05-21T04:55:11.206Z,22.55
2023-05-21T04:56:34.138Z,23.52
2023-05-21T04:57:58.353Z,23.67
2023-05-21T04:59:21.150Z,23.42
2023-05-21T05:00:46.708Z,23.58
2023-05-21T05:02:09.673Z,24.05
2023-05-21T05:03:31.609Z,23.25
2023-05-21T05:04:54.415Z,24.40
2023-05-21T05:06:17.648Z,23.48
2023-05-21T05:07:39.550Z,22.75
2023-05-21T05:09:02.404Z,23.02
2023-05-21T05:10:24.478Z,24.00
2023-05-21T05:11:47.254Z,23.77
2023-05-21T05:13:12.556Z,23.77
2023-05-21T05:14:35.656Z,23.85
2023-05-21T05:15:58.480Z,22.88
2023-05-21T05:17:21.371Z,22.98
2023-05-21T05:18:44.156Z,24.45
2023-05-21T05:20:08.469Z,23.15
2023-05-21T05:21:31.850Z,22.48
2023-05-21T05:22:54.696Z,22.75
2023-05-21T05:24:17.523Z,22.02
2023-05-21T05:25:40.503Z,24.35
2023-05-21T05:27:03.335Z,22.15
2023-05-21T05:28:27.481Z,23.13
2023-05-21T05:29:49.370Z,22.48
2023-05-21T05:31:12.195Z,22.80
2023-05-21T05:32:34.154Z,22.17
2023-05-21T05:33:57.581Z,22.20
2023-05-21T05:35:20.521Z,23.63
2023-05-21T05:36:42.379Z,24.15
2023-05-21T05:38:05.219Z,21.08
2023-05-21T05:39:27.091Z,22.17
2023-05-21T05:40:49.993Z,24.20
2023-05-21T05:42:11.909Z,23.20
2023-05-21T05:43:36.039Z,23.23
2023-05-21T05:44:58.854Z,23.95
2023-05-21T05:46:21.669Z,23.40
2023-05-21T05:47:43.552Z,23.52
2023-05-21T05:49:06.469Z,23.40
2023-05-21T05:50:29.405Z,23.40
2023-05-21T05:51:52.336Z,23.13
2023-05-21T05:53:14.660Z,22.85
2023-05-21T05:54:37.469Z,23.25
2023-05-21T05:56:00.530Z,23.92
2023-05-21T05:57:22.442Z,24.77
2023-05-21T05:58:46.585Z,23.35
2023-05-21T06:00:10.488Z,22.95
2023-05-21T06:01:34.430Z,23.90
2023-05-21T06:02:57.319Z,22.92
2023-05-21T06:04:19.208Z,23.27
2023-05-21T06:05:42.079Z,23.30
2023-05-21T06:07:05.278Z,22.95
2023-05-21T06:08:27.271Z,22.85
2023-05-21T06:09:50.106Z,22.30
2023-05-21T06:11:12.067Z,22.33
2023-05-21T06:12:35.200Z,23.00
2023-05-21T06:14:00.863Z,24.25
2023-05-21T06:15:23.710Z,21.58
2023-05-21T06:16:46.741Z,22.42
2023-05-21T06:18:09.660Z,23.25
2023-05-21T06:19:32.534Z,22.85
2023-05-21T06:20:54.503Z,21.70
2023-05-21T06:22:17.370Z,23.00
2023-05-21T06:23:40.264Z,23.60
2023-05-21T06:25:02.108Z,21.95
2023-05-21T06:26:24.973Z,22.17
2023-05-21T06:27:47.803Z,22.40
2023-05-21T06:29:14.204Z,22.55
2023-05-21T06:30:38.140Z,23.35
2023-05-21T06:32:00.190Z,22.48
2023-05-21T06:33:23.292Z,24.17
2023-05-21T06:34:46.832Z,23.73
2023-05-21T06:36:09.949Z,23.95
2023-05-21T06:37:32.826Z,22.58
2023-05-21T06:38:55.634Z,22.70
2023-05-21T06:40:18.436Z,23.45
2023-05-21T06:41:40.634Z,23.13
2023-05-21T06:43:05.204Z,22.35
2023-05-21T06:44:29.433Z,22.95
2023-05-21T06:45:52.442Z,23.17
2023-05-21T06:47:15.406Z,23.55
2023-05-21T06:48:37.299Z,23.38
2023-05-21T06:50:01.118Z,22.13
2023-05-21T06:51:23.955Z,23.27
2023-05-21T06:52:47.243Z,23.27
2023-05-21T06:54:10.121Z,21.63
2023-05-21T06:55:32.967Z,22.48
2023-05-21T06:56:55.373Z,22.50
2023-05-21T06:58:18.204Z,23.25
2023-05-21T06:59:42.528Z,22.52
2023-05-21T07:01:04.635Z,23.13
2023-05-21T07:02:27.528Z,22.35
2023-05-21T07:03:50.662Z,21.95
2023-05-21T07:05:13.466Z,20.67
2023-05-21T07:06:35.995Z,22.45
2023-05-21T07:07:58.804Z,20.75
2023-05-21T07:09:21.600Z,22.52
2023-05-21T07:10:44.429Z,22.05
2023-05-21T07:12:07.945Z,21.25
2023-05-21T07:13:30.837Z,21.70
2023-05-21T07:14:55.360Z,20.85
2023-05-21T07:16:19.002Z,20.75
2023-05-21T07:17:41.850Z,21.35
2023-05-21T07:19:04.687Z,20.55
2023-05-21T07:20:27.530Z,22.00
2023-05-21T07:21:50.601Z,21.35
2023-05-21T07:23:12.549Z,19.73
2023-05-21T07:24:35.395Z,21.38
2023-05-21T07:25:58.266Z,21.30
2023-05-21T07:27:25.715Z,21.08
2023-05-21T07:28:49.097Z,20.73
2023-05-21T07:30:16.059Z,20.63
2023-05-21T07:31:39.151Z,19.90
2023-05-21T07:33:02.207Z,21.95
2023-05-21T07:34:25.473Z,21.52
2023-05-21T07:35:48.524Z,20.42
2023-05-21T07:37:11.357Z,20.95
2023-05-21T07:38:34.556Z,20.70
2023-05-21T07:39:58.391Z,19.33
2023-05-21T07:41:22.020Z,19.10
2023-05-21T07:42:44.821Z,20.80
2023-05-21T07:44:10.977Z,20.27
2023-05-21T07:45:35.280Z,19.95
2023-05-21T07:46:58.735Z,19.75
2023-05-21T07:48:21.604Z,20.75
2023-05-21T07:49:44.456Z,19.98
2023-05-21T07:51:07.576Z,20.20
2023-05-21T07:52:30.501Z,19.65
2023-05-21T07:53:55.292Z,19.27
2023-05-21T07:55:18.356Z,20.40
2023-05-21T07:56:41.139Z,19.45
2023-05-21T07:58:03.042Z,20.00
2023-05-21T07:59:25.920Z,20.08
2023-05-21T08:00:51.036Z,17.77
2023-05-21T08:02:14.351Z,18.90
2023-05-21T08:03:37.318Z,18.05
2023-05-21T08:05:01.557Z,19.02
2023-05-21T08:06:24.434Z,19.48
2023-05-21T08:07:47.667Z,17.17
2023-05-21T08:09:10.458Z,19.40
2023-05-21T08:10:33.273Z,18.55
2023-05-21T08:11:56.112Z,20.02
2023-05-21T08:13:18.220Z,18.77
2023-05-21T08:14:41.513Z,17.17
2023-05-21T08:16:06.912Z,18.70
2023-05-21T08:17:29.770Z,17.67
2023-05-21T08:18:52.765Z,18.50
2023-05-21T08:20:15.153Z,18.95
2023-05-21T08:21:37.998Z,18.67
2023-05-21T08:23:01.118Z,18.33
2023-05-21T08:24:26.354Z,17.95
2023-05-21T08:25:49.160Z,17.67
2023-05-21T08:27:11.777Z,17.20
2023-05-21T08:28:35.639Z,17.40
2023-05-21T08:29:58.453Z,18.00
2023-05-21T08:31:22.770Z,18.45
2023-05-21T08:32:44.762Z,16.90
2023-05-21T08:34:07.826Z,17.63
2023-05-21T08:35:30.697Z,16.63
2023-05-21T08:36:53.834Z,16.85
2023-05-21T08:38:17.655Z,16.90
2023-05-21T08:39:40.566Z,16.33
2023-05-21T08:41:09.886Z,16.60
2023-05-21T08:42:40.318Z,16.13
2023-05-21T08:44:03.905Z,16.55
2023-05-21T08:45:27.934Z,15.35
2023-05-21T08:46:55.996Z,15.52
2023-05-21T08:48:19.365Z,16.25
2023-05-21T08:49:43.352Z,15.00
2023-05-21T08:51:07.137Z,16.70
2023-05-21T08:52:29.145Z,16.27
2023-05-21T08:53:52.237Z,15.73
2023-05-21T08:55:15.484Z,15.43
2023-05-21T08:56:40.752Z,15.70
2023-05-21T08:58:05.247Z,16.52
2023-05-21T08:59:28.217Z,16.75
2023-05-21T09:00:51.357Z,15.70
2023-05-21T09:02:15.279Z,16.38
2023-05-21T09:03:41.082Z,16.90
2023-05-21T09:05:05.580Z,14.90
2023-05-21T09:06:27.842Z,15.50
2023-05-21T09:07:56.953Z,15.68
2023-05-21T09:09:28.854Z,15.57
2023-05-21T09:10:53.289Z,15.93
2023-05-21T09:12:16.386Z,14.30
2023-05-21T09:13:39.714Z,16.27
2023-05-21T09:15:02.995Z,14.10
2023-05-21T09:16:25.847Z,14.80
2023-05-21T09:17:50.132Z,14.38
2023-05-21T09:19:13.039Z,14.95
2023-05-21T09:20:36.276Z,14.20
2023-05-21T09:22:02.277Z,14.60
2023-05-21T09:23:25.178Z,15.13
2023-05-21T09:24:47.915Z,14.55
2023-05-21T09:26:13.808Z,14.07
2023-05-21T09:27:36.096Z,13.90
2023-05-21T09:29:01.115Z,15.05
2023-05-21T09:30:26.794Z,14.88
2023-05-21T09:31:50.763Z,13.75
2023-05-21T09:33:25.867Z,14.27
2023-05-21T09:34:49.096Z,14.05
2023-05-21T09:36:12.053Z,14.48
2023-05-21T09:37:38.440Z,13.63
2023-05-21T09:39:01.843Z,13.68
2023-05-21T09:40:25.388Z,13.23
2023-05-21T09:41:48.471Z,14.13
2023-05-21T09:43:14.931Z,13.95
2023-05-21T09:44:37.778Z,14.40
2023-05-21T09:46:01.925Z,12.70
2023-05-21T09:47:25.344Z,13.32
2023-05-21T09:48:49.511Z,13.02
2023-05-21T09:50:14.395Z,13.55
2023-05-21T09:51:38.685Z,12.82
2023-05-21T09:53:01.500Z,13.02
2023-05-21T09:54:24.869Z,13.00
2023-05-21T09:55:48.800Z,12.35
2023-05-21T09:57:11.619Z,12.95
2023-05-21T09:58:34.493Z,12.38
2023-05-21T09:59:57.393Z,12.25
2023-05-21T10:01:19.949Z,13.00
2023-05-21T10:02:45.958Z,12.55
2023-05-21T10:04:10.917Z,12.65
2023-05-21T10:05:34.690Z,12.95
2023-05-21T10:06:59.401Z,12.85
2023-05-21T10:08:26.470Z,12.07
2023-05-21T10:09:49.833Z,13.18
2023-05-21T10:11:13.198Z,12.55
2023-05-21T10:12:36.901Z,12.57
2023-05-21T10:14:06.229Z,12.23
2023-05-21T10:15:33.207Z,12.68
2023-05-21T10:16:57.292Z,12.27
2023-05-21T10:18:21.584Z,11.40
2023-05-21T10:19:47.588Z,12.93
2023-05-21T10:21:10.701Z,12.75
2023-05-21T10:22:34.002Z,12.90
2023-05-21T10:23:57.643Z,12.27
2023-05-21T10:25:21.726Z,12.85
2023-05-21T10:26:45.602Z,13.32
2023-05-21T10:28:08.464Z,11.02
2023-05-21T10:29:32.296Z,12.07
2023-05-21T10:30:55.401Z,12.38
2023-05-21T10:32:17.384Z,12.45
2023-05-21T10:33:42.107Z,12.30
2023-05-21T10:35:08.509Z,13.73
2023-05-21T10:36:32.001Z,12.70
2023-05-21T10:37:55.448Z,12.30
2023-05-21T10:39:20.810Z,11.38
2023-05-21T10:40:43.690Z,12.13
2023-05-21T10:42:25.653Z,12.15
2023-05-21T10:44:02.692Z,13.07
2023-05-21T10:45:33.610Z,11.95
2023-05-21T10:50:44.726Z,12.32
2023-05-21T10:52:20.073Z,12.68
2023-05-21T10:53:55.604Z,12.85
2023-05-21T10:55:31.781Z,12.45
2023-05-21T10:57:07.657Z,11.82
2023-05-21T10:58:52.497Z,12.50
2023-05-21T11:00:16.081Z,11.75
2023-05-21T11:01:40.555Z,11.35
2023-05-21T11:03:05.366Z,11.30
2023-05-21T11:04:28.712Z,12.38
2023-05-21T11:05:57.191Z,12.40
2023-05-21T11:07:24.650Z,11.88
2023-05-21T11:08:49.064Z,11.82
2023-05-21T11:10:30.156Z,11.95
2023-05-21T11:11:54.510Z,11.85
2023-05-21T11:13:17.186Z,11.32
2023-05-21T11:14:42.848Z,11.13
2023-05-21T11:16:08.277Z,11.32
2023-05-21T11:17:39.237Z,11.75
2023-05-21T11:19:02.194Z,11.80
2023-05-21T11:20:35.302Z,11.55
2023-05-21T11:21:59.609Z,11.30
2023-05-21T11:23:22.412Z,11.70
2023-05-21T11:24:45.311Z,11.85
2023-05-21T11:26:07.207Z,12.05
2023-05-21T11:27:34.804Z,12.25
2023-05-21T11:29:09.423Z,12.32
2023-05-21T11:30:34.490Z,11.07
2023-05-21T11:32:01.647Z,11.82
2023-05-21T11:33:24.480Z,11.35
2023-05-21T11:34:47.814Z,11.13
2023-05-21T11:36:13.761Z,11.15
2023-05-21T11:37:41.565Z,12.65
2023-05-21T11:39:10.817Z,11.10
2023-05-21T11:40:33.694Z,10.68
2023-05-21T11:41:57.986Z,9.48
2023-05-21T11:43:20.804Z,9.75
2023-05-21T11:44:44.042Z,8.95
2023-05-21T11:46:07.136Z,8.18
2023-05-21T11:47:29.907Z,8.75
2023-05-21T11:48:53.794Z,9.50
2023-05-21T11:50:17.637Z,10.80
2023-05-21T11:51:40.572Z,9.57
2023-05-21T11:53:07.578Z,8.38
2023-05-21T11:54:34.058Z,9.20
2023-05-21T11:55:57.705Z,9.15
2023-05-21T11:57:19.931Z,8.98
2023-05-21T11:58:43.534Z,8.70
2023-05-21T12:00:14.077Z,8.82
2023-05-21T12:01:36.973Z,8.68
2023-05-21T12:03:00.184Z,9.05
2023-05-21T12:04:22.413Z,8.45
2023-05-21T12:05:46.211Z,8.93
2023-05-21T12:07:09.048Z,10.10
2023-05-21T12:08:33.253Z,9.25
2023-05-21T12:09:55.719Z,9.20
2023-05-21T12:11:18.883Z,8.80
2023-05-21T12:12:54.030Z,8.23
2023-05-21T12:14:19.122Z,8.20
2023-05-21T12:15:42.021Z,8.02
2023-05-21T12:17:05.026Z,7.78
2023-05-21T12:18:27.981Z,8.18
2023-05-21T12:19:53.074Z,7.57
2023-05-21T12:21:16.294Z,7.75
2023-05-21T12:22:44.046Z,7.75
2023-05-21T12:24:07.443Z,7.68
2023-05-21T12:25:32.045Z,7.22
2023-05-21T12:26:55.257Z,8.02
2023-05-21T12:28:18.316Z,7.25
2023-05-21T12:29:43.341Z,7.75
2023-05-21T12:31:05.628Z,8.20
2023-05-21T12:32:28.811Z,7.55
2023-05-21T12:33:51.563Z,7.15
2023-05-21T12:35:32.794Z,7.20
2023-05-21T12:36:54.784Z,7.40
2023-05-21T12:38:17.602Z,7.30
2023-05-21T12:39:46.724Z,7.78
2023-05-21T12:41:08.654Z,7.05
2023-05-21T12:42:35.047Z,7.10
2023-05-21T12:43:58.551Z,7.32
2023-05-21T12:45:22.786Z,6.93
2023-05-21T12:46:44.773Z,6.97
2023-05-21T12:48:08.109Z,7.63
2023-05-21T12:49:38.655Z,7.25
2023-05-21T12:51:01.710Z,6.85
2023-05-21T12:52:25.612Z,7.78
2023-05-21T12:53:48.064Z,7.00
2023-05-21T12:55:14.286Z,8.23
2023-05-21T12:56:44.987Z,8.07
2023-05-21T12:58:09.017Z,7.65
2023-05-21T12:59:45.100Z,7.63
2023-05-21T13:01:08.940Z,6.75
2023-05-21T13:02:33.289Z,7.57
2023-05-21T13:03:56.619Z,7.10
2023-05-21T13:05:20.113Z,6.65
2023-05-21T13:06:42.834Z,7.32
2023-05-21T13:08:06.101Z,7.35
2023-05-21T13:09:28.092Z,7.20
2023-05-21T13:10:52.316Z,6.78
2023-05-21T13:12:15.332Z,6.43
2023-05-21T13:13:38.201Z,6.80
2023-05-21T13:15:03.737Z,6.78
2023-05-21T13:16:26.628Z,6.78
2023-05-21T13:17:50.822Z,6.50
2023-05-21T13:19:15.328Z,7.13
2023-05-21T13:20:38.616Z,6.47
2023-05-21T13:22:01.689Z,7.13
2023-05-21T13:23:24.783Z,6.93
2023-05-21T13:24:47.990Z,6.90
2023-05-21T13:26:12.135Z,7.53
2023-05-21T13:27:34.963Z,7.07
2023-05-21T13:28:56.833Z,7.20
2023-05-21T13:30:20.722Z,6.72
2023-05-21T13:31:43.927Z,6.60
2023-05-21T13:33:07.326Z,7.03
2023-05-21T13:34:30.259Z,6.63
2023-05-21T13:35:53.179Z,6.47
2023-05-21T13:37:15.152Z,5.95
2023-05-21T13:38:38.101Z,6.60
2023-05-21T13:40:00.965Z,6.70
2023-05-21T13:41:25.146Z,7.00
2023-05-21T13:42:49.915Z,7.70
2023-05-21T13:44:12.757Z,7.20
2023-05-21T13:45:35.791Z,6.63
2023-05-21T13:46:58.793Z,6.45
2023-05-21T13:48:21.838Z,6.60
2023-05-21T13:49:44.669Z,7.50
2023-05-21T13:51:07.500Z,6.60
2023-05-21T13:52:30.304Z,6.70
2023-05-21T13:53:54.059Z,7.25
2023-05-21T13:55:18.885Z,6.80
2023-05-21T13:56:43.130Z,6.72
2023-05-21T13:58:06.312Z,6.75
2023-05-21T13:59:28.689Z,7.45
2023-05-21T14:00:52.105Z,6.60
2023-05-21T14:02:15.033Z,6.53
2023-05-21T14:03:37.971Z,7.03
2023-05-21T14:05:00.852Z,7.13
2023-05-21T14:06:23.698Z,7.07
2023-05-21T14:07:48.259Z,7.07
2023-05-21T14:09:11.142Z,7.32
2023-05-21T14:10:34.030Z,6.95
2023-05-21T14:11:58.752Z,6.82
2023-05-21T14:13:21.594Z,6.85
2023-05-21T14:14:44.411Z,6.68
2023-05-21T14:16:08.332Z,7.10
2023-05-21T14:17:31.186Z,7.43
2023-05-21T14:18:53.424Z,7.22
2023-05-21T14:20:16.257Z,7.40
2023-05-21T14:21:39.094Z,7.38
2023-05-21T14:23:01.895Z,8.10
2023-05-21T14:24:24.707Z,7.90
2023-05-21T14:25:47.498Z,8.43
2023-05-21T14:27:13.856Z,7.80
2023-05-21T14:28:38.063Z,30.98
2023-05-21T14:30:00.940Z,20.70
2023-05-21T14:31:25.089Z,13.18
2023-05-21T14:32:47.985Z,13.30
2023-05-21T14:34:10.815Z,12.43
2023-05-21T14:35:35.803Z,16.45
2023-05-21T14:36:58.765Z,14.48
2023-05-21T14:38:21.610Z,13.07
2023-05-21T14:39:44.550Z,10.40
2023-05-21T14:41:07.353Z,10.65
2023-05-21T14:42:32.072Z,10.48
2023-05-21T14:43:55.046Z,11.45
2023-05-21T14:45:19.443Z,11.10
2023-05-21T14:46:41.853Z,11.77
2023-05-21T14:48:08.567Z,10.45
2023-05-21T14:49:31.563Z,10.20
2023-05-21T14:50:54.956Z,10.55
2023-05-21T14:52:17.877Z,10.95
2023-05-21T14:53:41.269Z,10.98
2023-05-21T14:55:04.292Z,9.95
2023-05-21T14:56:28.142Z,10.23
2023-05-21T14:57:52.387Z,10.00
2023-05-21T14:59:15.260Z,9.93
2023-05-21T15:00:39.178Z,9.95
2023-05-21T15:02:02.284Z,10.35
2023-05-21T15:03:25.362Z,10.40
2023-05-21T15:04:48.288Z,10.25
2023-05-21T15:06:11.302Z,10.40
2023-05-21T15:07:34.150Z,9.38
2023-05-21T15:08:56.266Z,9.60
2023-05-21T15:10:19.228Z,9.93
2023-05-21T15:11:41.149Z,9.80
2023-05-21T15:13:05.504Z,9.98
2023-05-21T15:14:27.734Z,9.48
2023-05-21T15:15:51.097Z,9.85
2023-05-21T15:17:14.036Z,8.93
2023-05-21T15:18:36.938Z,8.68
2023-05-21T15:20:01.414Z,9.77
2023-05-21T15:21:26.511Z,9.25
2023-05-21T15:22:51.454Z,9.50
2023-05-21T15:24:15.353Z,9.40
2023-05-21T15:25:38.351Z,9.98
2023-05-21T15:27:01.358Z,10.50
2023-05-21T15:28:25.727Z,9.18
2023-05-21T15:29:49.351Z,9.15
2023-05-21T15:31:12.468Z,9.45
2023-05-21T15:32:35.467Z,9.27
2023-05-21T15:33:59.074Z,9.57
2023-05-21T15:35:23.424Z,9.95
2023-05-21T15:36:46.442Z,9.15
2023-05-21T15:38:09.310Z,10.27
2023-05-21T15:39:32.169Z,11.02
2023-05-21T15:40:54.971Z,10.38
2023-05-21T15:42:17.891Z,10.68
2023-05-21T15:43:42.243Z,9.63
2023-05-21T15:45:05.814Z,9.75
2023-05-21T15:46:27.700Z,9.43
2023-05-21T15:47:50.627Z,9.63
2023-05-21T15:49:13.451Z,9.82
2023-05-21T15:50:37.621Z,9.27
2023-05-21T15:52:00.819Z,9.65
2023-05-21T15:53:23.627Z,9.25
2023-05-21T15:54:46.842Z,10.07
2023-05-21T15:56:09.952Z,9.27
2023-05-21T15:57:32.817Z,9.65
2023-05-21T15:58:59.915Z,9.40
2023-05-21T16:00:22.707Z,9.52
2023-05-21T16:01:45.776Z,8.50
2023-05-21T16:03:08.796Z,8.40
2023-05-21T16:04:33.035Z,8.57
2023-05-21T16:05:55.895Z,9.73
2023-05-21T16:07:18.762Z,8.23
2023-05-21T16:08:41.627Z,8.75
2023-05-21T16:10:04.905Z,9.30
2023-05-21T16:11:28.032Z,8.55
2023-05-21T16:12:50.877Z,9.27
2023-05-21T16:14:15.130Z,9.13
2023-05-21T16:15:38.281Z,8.40
2023-05-21T16:17:01.489Z,8.88
2023-05-21T16:18:24.379Z,8.60
2023-05-21T16:19:47.413Z,8.18
2023-05-21T16:21:10.717Z,8.50
2023-05-21T16:22:32.621Z,8.23
2023-05-21T16:23:55.531Z,8.43
2023-05-21T16:25:18.813Z,8.77
2023-05-21T16:26:41.696Z,9.05
2023-05-21T16:28:04.701Z,8.50
2023-05-21T16:29:28.843Z,9.20
2023-05-21T16:30:51.529Z,8.88
2023-05-21T16:32:14.782Z,8.48
2023-05-21T16:33:36.772Z,9.60
2023-05-21T16:34:59.630Z,8.80
2023-05-21T16:36:22.519Z,8.20
2023-05-21T16:37:44.431Z,8.32
2023-05-21T16:39:07.237Z,9.20
2023-05-21T16:40:31.039Z,8.48
2023-05-21T16:41:55.878Z,8.70
2023-05-21T16:43:18.731Z,8.30
2023-05-21T16:44:42.003Z,9.43
2023-05-21T16:46:04.914Z,8.65
2023-05-21T16:47:26.878Z,9.25
2023-05-21T16:48:49.693Z,9.52
2023-05-21T16:50:12.590Z,9.00
2023-05-21T16:51:34.467Z,8.77
2023-05-21T16:52:59.089Z,9.50
2023-05-21T16:54:22.019Z,10.63
2023-05-21T16:55:44.857Z,9.60
2023-05-21T16:57:08.018Z,10.05
2023-05-21T16:58:33.202Z,9.68
2023-05-21T16:59:57.615Z,8.60
2023-05-21T17:01:20.480Z,9.73
2023-05-21T17:02:43.417Z,9.40
2023-05-21T17:04:06.615Z,9.90
2023-05-21T17:05:28.831Z,10.30
2023-05-21T17:06:51.660Z,9.30
2023-05-21T17:08:14.511Z,9.75
2023-05-21T17:09:37.379Z,9.63
2023-05-21T17:10:59.225Z,9.63
2023-05-21T17:12:22.021Z,9.70
2023-05-21T17:13:48.359Z,10.45
2023-05-21T17:15:12.534Z,10.35
2023-05-21T17:16:35.525Z,9.95
2023-05-21T17:17:58.516Z,9.82
2023-05-21T17:19:20.493Z,10.48
2023-05-21T17:20:44.015Z,9.25
2023-05-21T17:22:07.008Z,10.00
2023-05-21T17:23:29.814Z,10.32
2023-05-21T17:24:52.656Z,10.15
2023-05-21T17:26:14.569Z,10.48
2023-05-21T17:27:37.758Z,10.48
2023-05-21T17:29:00.731Z,11.20
2023-05-21T17:30:24.850Z,11.48
2023-05-21T17:31:47.808Z,11.02
2023-05-21T17:33:12.247Z,11.02
2023-05-21T17:34:35.182Z,10.45
2023-05-21T17:35:58.056Z,12.93
2023-05-21T17:37:20.874Z,11.18
2023-05-21T17:38:43.849Z,10.45
2023-05-21T17:40:08.186Z,11.10
2023-05-21T17:41:31.049Z,11.70
2023-05-21T17:42:53.898Z,10.05
2023-05-21T17:44:17.159Z,10.77
2023-05-21T17:45:41.326Z,10.73
2023-05-21T17:47:04.769Z,10.43
2023-05-21T17:48:27.633Z,11.50
2023-05-21T17:49:50.806Z,10.90
2023-05-21T17:51:14.125Z,10.30
2023-05-21T17:52:37.179Z,10.90
2023-05-21T17:54:00.207Z,10.55
2023-05-21T17:55:23.015Z,9.75
2023-05-21T17:56:46.376Z,9.95
2023-05-21T17:58:10.337Z,10.15
2023-05-21T17:59:33.176Z,9.45
2023-05-21T18:00:57.395Z,10.18
2023-05-21T18:02:20.893Z,9.10
2023-05-21T18:03:43.735Z,9.35
2023-05-21T18:05:06.887Z,9.30
2023-05-21T18:06:29.043Z,9.60
2023-05-21T18:07:51.853Z,8.75
2023-05-21T18:09:15.450Z,7.82
2023-05-21T18:10:38.350Z,8.63
2023-05-21T18:12:01.534Z,8.38